Time;durP1;ratioP1;P1;durP2;ratioP2;P2;SDS_P1;SDS_P2;PMS_P1;PMS_P2;Temp;Humidity;BMP_temperature;BMP_pressure;BME280_temperature;BME280_humidity;BME280_pressure;Samples;Min_cycle;Max_cycle;Signal;HPM_P1;HPM_P2
2024/01/11 00:00:19;;;;;;;24.47;8.53;;;;;;;-3.90;87.47;103049.25;5077443;28;20028;-84
2024/01/11 00:02:44;;;;;;;22.80;9.68;;;;;;;-3.94;86.75;103050.31;5078377;28;20036;-84
2024/01/11 00:05:10;;;;;;;20.07;8.33;;;;;;;-3.92;87.83;103053.78;5077840;28;20032;-84
2024/01/11 00:07:38;;;;;;;17.00;6.78;;;;;;;-3.96;88.39;103054.84;5077805;28;20036;-85
2024/01/11 00:10:03;;;;;;;14.07;5.93;;;;;;;-3.95;90.00;103048.59;5078482;28;20078;-84
2024/01/11 00:12:31;;;;;;;16.98;6.95;;;;;;;-3.98;90.27;103044.28;5077994;28;20036;-85
2024/01/11 00:14:58;;;;;;;23.77;10.15;;;;;;;-3.98;88.33;103048.75;5077444;28;20027;-84
2024/01/11 00:17:26;;;;;;;20.80;8.10;;;;;;;-4.00;89.57;103048.81;5061347;28;20118;-85
2024/01/11 00:19:54;;;;;;;20.60;8.80;;;;;;;-4.05;89.64;103043.69;5045508;28;20309;-84
2024/01/11 00:22:19;;;;;;;19.98;7.70;;;;;;;-4.04;89.82;103055.16;5077569;28;20036;-85
2024/01/11 00:24:44;;;;;;;17.90;7.03;;;;;;;-4.06;89.91;103059.66;5095239;28;20024;-84
2024/01/11 00:27:10;;;;;;;25.55;10.23;;;;;;;-4.09;89.03;103059.78;5077033;28;20467;-85
2024/01/11 00:29:36;;;;;;;20.02;8.65;;;;;;;-4.13;89.69;103048.47;5095363;28;20031;-85
2024/01/11 00:32:01;;;;;;;23.60;9.90;;;;;;;-4.14;89.07;103059.13;5095394;28;20024;-85
2024/01/11 00:34:27;;;;;;;17.00;7.03;;;;;;;-4.15;90.95;103055.63;5077214;28;20431;-84
2024/01/11 00:36:52;;;;;;;16.13;7.00;;;;;;;-4.13;91.66;103051.13;5060582;28;20066;-85
2024/01/11 00:39:18;;;;;;;20.07;8.03;;;;;;;-4.14;90.58;103045.88;5076996;28;20478;-85
2024/01/11 00:41:43;;;;;;;21.27;8.32;;;;;;;-4.14;90.53;103052.03;5077271;28;20024;-84
2024/01/11 00:44:09;;;;;;;23.98;10.15;;;;;;;-4.14;89.66;103048.53;5077758;28;20361;-86
2024/01/11 00:46:38;;;;;;;29.70;12.30;;;;;;;-4.15;89.17;103050.34;5060446;28;20498;-85
2024/01/11 00:49:03;;;;;;;18.80;7.47;;;;;;;-4.14;90.80;103045.88;5095314;28;20790;-85
2024/01/11 00:51:32;;;;;;;23.42;9.70;;;;;;;-4.16;90.40;103047.72;5060428;28;20044;-84
2024/01/11 00:53:57;;;;;;;21.73;8.80;;;;;;;-4.16;90.84;103047.72;5076751;28;20031;-84
2024/01/11 00:56:23;;;;;;;18.97;8.30;;;;;;;-4.16;90.89;103056.56;5060171;28;20035;-84
2024/01/11 00:58:48;;;;;;;17.70;5.70;;;;;;;-4.15;92.54;103053.00;5077005;28;20028;-85
2024/01/11 01:01:14;;;;;;;20.77;8.70;;;;;;;-4.19;91.41;103048.72;5094702;28;20031;-85
2024/01/11 01:03:40;;;;;;;14.55;6.82;;;;;;;-4.19;92.83;103055.81;5076297;28;20028;-85
2024/01/11 01:06:05;;;;;;;21.37;8.17;;;;;;;-4.20;92.63;103059.41;5076545;28;20028;-85
2024/01/11 01:08:31;;;;;;;20.85;8.85;;;;;;;-4.18;93.05;103052.22;5076257;28;20039;-85
2024/01/11 01:10:57;;;;;;;20.63;8.17;;;;;;;-4.16;93.34;103059.22;5076093;28;20074;-85
2024/01/11 01:13:22;;;;;;;20.02;7.65;;;;;;;-4.16;94.23;103053.91;5059774;28;20301;-85
2024/01/11 01:15:48;;;;;;;16.50;7.43;;;;;;;-4.19;93.61;103056.69;5076267;28;20059;-84
2024/01/11 01:18:14;;;;;;;18.65;8.13;;;;;;;-4.19;92.71;103059.34;5094575;28;20035;-85
2024/01/11 01:20:39;;;;;;;17.27;7.57;;;;;;;-4.23;93.33;103063.03;5076255;28;20063;-85
2024/01/11 01:23:04;;;;;;;21.93;8.67;;;;;;;-4.25;92.30;103063.09;5094504;28;20043;-85
2024/01/11 01:25:30;;;;;;;22.60;9.20;;;;;;;-4.29;92.53;103064.16;5076035;28;20039;-86
2024/01/11 01:27:56;;;;;;;15.85;6.60;;;;;;;-4.31;93.48;103071.31;5043056;28;20051;-85
2024/01/11 01:30:23;;;;;;;17.25;7.20;;;;;;;-4.32;93.81;103066.94;5094376;28;20035;-85
2024/01/11 01:32:50;;;;;;;20.97;9.07;;;;;;;-4.36;92.72;103072.44;5075823;28;20361;-85
2024/01/11 01:35:16;;;;;;;19.65;8.32;;;;;;;-4.37;94.41;103071.56;5076553;28;20035;-85
2024/01/11 01:37:42;;;;;;;22.02;9.60;;;;;;;-4.37;93.83;103068.94;5042523;28;20035;-85
2024/01/11 01:40:11;;;;;;;16.17;6.47;;;;;;;-4.36;94.92;103075.09;5059417;28;20073;-85
2024/01/11 01:42:42;;;;;;;17.15;7.72;;;;;;;-4.36;95.15;103075.09;5075666;28;20468;-85
2024/01/11 01:45:12;;;;;;;15.82;7.43;;;;;;;-4.35;94.91;103080.31;5076342;28;20028;-85
2024/01/11 01:47:42;;;;;;;20.77;8.93;;;;;;;-4.38;93.82;103091.03;5059648;28;20038;-85
2024/01/11 01:50:09;;;;;;;27.20;9.93;;;;;;;-4.41;93.36;103099.97;5059425;28;20039;-85
2024/01/11 01:52:37;;;;;;;23.77;8.18;;;;;;;-4.44;93.61;103099.25;5075550;28;20270;-85
2024/01/11 01:55:04;;;;;;;19.05;8.38;;;;;;;-4.45;94.24;103094.88;5075849;28;20478;-85
2024/01/11 01:57:32;;;;;;;24.10;9.73;;;;;;;-4.47;94.26;103108.19;5075996;28;20034;-85
2024/01/11 01:59:58;;;;;;;24.83;9.15;;;;;;;-4.47;94.38;103109.97;5075686;28;20040;-85
2024/01/11 02:02:24;;;;;;;26.73;10.40;;;;;;;-4.51;93.39;103109.22;5059856;28;20130;-85
2024/01/11 02:04:50;;;;;;;23.58;9.95;;;;;;;-4.54;94.21;103114.66;5075310;28;20298;-85
2024/01/11 02:07:16;;;;;;;24.17;9.43;;;;;;;-4.58;93.81;103115.69;5076341;28;20032;-85
2024/01/11 02:09:42;;;;;;;13.80;6.32;;;;;;;-4.58;95.81;103097.13;5059073;28;20055;-85
2024/01/11 02:12:12;;;;;;;21.55;8.90;;;;;;;-4.56;95.40;103105.03;5093724;28;20020;-85
2024/01/11 02:14:38;;;;;;;16.25;6.13;;;;;;;-4.55;96.58;103094.38;5059489;28;20036;-85
2024/01/11 02:17:04;;;;;;;17.97;7.73;;;;;;;-4.55;96.84;103088.22;5075624;28;20377;-85
2024/01/11 02:19:29;;;;;;;21.53;9.40;;;;;;;-4.57;96.04;103084.78;5076988;28;20495;-85
2024/01/11 02:22:00;;;;;;;25.80;8.43;;;;;;;-4.57;96.67;103082.13;5062783;28;20043;-85
2024/01/11 02:24:26;;;;;;;16.80;6.35;;;;;;;-4.57;98.20;103084.78;5079842;28;20031;-85
2024/01/11 02:27:02;;;;;;;23.83;7.97;;;;;;;-4.58;97.59;103086.53;5097385;28;20055;-85
2024/01/11 02:29:29;;;;;;;18.95;6.63;;;;;;;-4.58;98.27;103075.94;5079376;28;20027;-85
2024/01/11 02:31:56;;;;;;;23.27;8.63;;;;;;;-4.62;98.53;103083.16;5079554;28;20039;-85
2024/01/11 02:34:26;;;;;;;22.17;9.05;;;;;;;-4.65;97.30;103088.59;5063516;28;20032;-85
2024/01/11 02:36:53;;;;;;;25.42;10.05;;;;;;;-4.69;96.84;103091.44;5078988;28;20118;-85
2024/01/11 02:39:19;;;;;;;17.63;7.50;;;;;;;-4.72;96.67;103104.75;5098356;28;20073;-84
2024/01/11 02:41:51;;;;;;;19.17;8.00;;;;;;;-4.73;97.67;103097.75;5097267;28;20032;-84
2024/01/11 02:44:17;;;;;;;24.05;9.90;;;;;;;-4.77;97.17;103103.19;5079382;28;20053;-85
2024/01/11 02:46:42;;;;;;;20.23;8.27;;;;;;;-4.78;98.08;103093.50;5079967;28;20040;-85
2024/01/11 02:49:07;;;;;;;19.98;8.32;;;;;;;-4.78;98.18;103098.78;5078868;28;20563;-85
2024/01/11 02:51:33;;;;;;;18.70;7.63;;;;;;;-4.78;98.98;103098.78;5097333;28;20111;-85
2024/01/11 02:54:01;;;;;;;24.53;9.43;;;;;;;-4.79;98.06;103094.41;5062515;28;20032;-84
2024/01/11 02:56:26;;;;;;;14.13;5.93;;;;;;;-4.75;99.77;103089.88;5079045;28;20065;-85
2024/01/11 02:58:52;;;;;;;24.77;10.00;;;;;;;-4.79;98.54;103104.16;5078801;28;20028;-84
2024/01/11 03:01:17;;;;;;;26.50;9.93;;;;;;;-4.81;97.37;103104.22;5078653;28;20039;-85
2024/01/11 03:03:42;;;;;;;24.80;8.80;;;;;;;-4.83;98.03;103098.09;5079199;28;20035;-85
2024/01/11 03:06:08;;;;;;;22.33;8.88;;;;;;;-4.84;97.65;103098.16;5078728;28;20289;-85
2024/01/11 03:08:33;;;;;;;23.83;9.70;;;;;;;-4.85;98.11;103092.00;5045109;28;20044;-85
2024/01/11 03:10:59;;;;;;;20.53;7.83;;;;;;;-4.84;98.83;103098.16;5096981;28;20039;-85
2024/01/11 03:13:24;;;;;;;24.17;9.32;;;;;;;-4.88;98.33;103093.94;5062117;28;20028;-85
2024/01/11 03:15:52;;;;;;;23.48;9.07;;;;;;;-4.90;98.32;103101.03;5078624;28;20365;-85
2024/01/11 03:18:18;;;;;;;22.67;8.53;;;;;;;-4.93;98.87;103104.69;5078681;28;20555;-84
2024/01/11 03:20:43;;;;;;;25.58;9.98;;;;;;;-4.95;98.29;103103.88;5078558;28;20372;-85
2024/01/11 03:23:15;;;;;;;15.47;6.20;;;;;;;-4.91;100.00;103096.69;5079130;28;20036;-85
2024/01/11 03:25:43;;;;;;;24.38;11.05;;;;;;;-4.91;98.96;103104.63;5061607;28;20114;-85
2024/01/11 03:28:08;;;;;;;16.23;6.83;;;;;;;-4.90;99.59;103101.03;5097091;28;20052;-85
2024/01/11 03:30:34;;;;;;;16.45;7.38;;;;;;;-4.93;99.90;103105.56;5062059;28;20373;-85
2024/01/11 03:32:59;;;;;;;27.87;9.90;;;;;;;-4.95;99.18;103094.13;5078457;28;20031;-85
2024/01/11 03:35:25;;;;;;;15.30;7.00;;;;;;;-4.93;100.00;103094.09;5062517;28;20034;-85
2024/01/11 03:37:53;;;;;;;22.10;9.07;;;;;;;-4.97;99.85;103090.69;5078682;28;20428;-85
2024/01/11 03:40:18;;;;;;;20.70;9.15;;;;;;;-4.99;99.84;103100.50;5078246;28;20308;-85
2024/01/11 03:42:44;;;;;;;22.13;9.48;;;;;;;-5.04;99.54;103101.59;5061655;28;20020;-85
2024/01/11 03:45:11;;;;;;;23.10;8.47;;;;;;;-5.06;99.50;103101.66;5044861;28;20028;-85
2024/01/11 03:47:37;;;;;;;26.33;9.80;;;;;;;-5.10;99.60;103084.16;5060735;28;20127;-85
2024/01/11 03:50:03;;;;;;;18.00;7.23;;;;;;;-5.09;100.00;103091.19;5077974;28;20112;-85
2024/01/11 03:52:29;;;;;;;13.45;5.65;;;;;;;-5.07;100.00;103081.38;5078143;28;20055;-85
2024/01/11 03:54:55;;;;;;;21.77;8.13;;;;;;;-5.07;100.00;103085.81;5077693;28;20028;-85
2024/01/11 03:57:23;;;;;;;27.55;10.80;;;;;;;-5.12;99.88;103094.78;5077968;28;20020;-85
2024/01/11 03:59:48;;;;;;;25.23;10.03;;;;;;;-5.16;99.91;103090.53;5061991;28;20113;-85
2024/01/11 04:02:14;;;;;;;26.60;11.70;;;;;;;-5.20;98.23;103099.50;5078245;28;20698;-85
2024/01/11 04:04:41;;;;;;;20.43;7.63;;;;;;;-5.21;100.00;103104.84;5060793;28;20040;-85
2024/01/11 04:07:06;;;;;;;25.95;8.07;;;;;;;-5.21;100.00;103100.44;5077720;28;20039;-86
2024/01/11 04:09:32;;;;;;;19.87;8.20;;;;;;;-5.20;100.00;103090.72;5078706;28;20364;-85
2024/01/11 04:11:57;;;;;;;25.30;10.43;;;;;;;-5.19;100.00;103092.44;5078693;28;20077;-85
2024/01/11 04:14:23;;;;;;;24.53;9.40;;;;;;;-5.22;100.00;103097.84;5077662;28;20073;-86
2024/01/11 04:16:48;;;;;;;18.73;7.60;;;;;;;-5.21;100.00;103096.91;5060861;28;20044;-85
2024/01/11 04:19:16;;;;;;;19.30;7.90;;;;;;;-5.20;100.00;103109.22;5078049;28;20376;-85
2024/01/11 04:21:41;;;;;;;25.88;11.00;;;;;;;-5.28;99.54;103120.97;5077602;28;20036;-85
2024/01/11 04:24:09;;;;;;;19.53;8.10;;;;;;;-5.31;100.00;103128.16;5077675;28;20115;-86
2024/01/11 04:26:35;;;;;;;24.17;9.95;;;;;;;-5.32;100.00;103142.31;5077247;28;20056;-85
2024/01/11 04:29:00;;;;;;;29.07;9.97;;;;;;;-5.34;100.00;103142.38;5077574;28;20111;-85
2024/01/11 04:31:26;;;;;;;17.48;6.85;;;;;;;-5.31;100.00;103136.09;5060647;28;20087;-85
2024/01/11 04:33:52;;;;;;;26.27;11.35;;;;;;;-5.31;100.00;103136.09;5095680;28;20108;-85
2024/01/11 04:36:17;;;;;;;25.73;9.30;;;;;;;-5.30;100.00;103138.69;5076941;28;20119;-85
2024/01/11 04:38:44;;;;;;;23.50;8.77;;;;;;;-5.32;99.81;103145.81;5077284;28;20043;-85
2024/01/11 04:41:16;;;;;;;21.30;8.90;;;;;;;-5.34;100.00;103152.09;5076587;28;20031;-84
2024/01/11 04:43:43;;;;;;;23.35;8.77;;;;;;;-5.37;100.00;103146.91;5076723;28;20031;-85
2024/01/11 04:46:22;;;;;;;24.83;10.00;;;;;;;-5.40;100.00;103154.94;5076952;28;20031;-86
2024/01/11 04:48:49;;;;;;;24.43;10.50;;;;;;;-5.46;100.00;103164.84;5076821;28;20028;-85
2024/01/11 04:51:15;;;;;;;23.88;9.65;;;;;;;-5.48;100.00;103152.56;5076914;28;20054;-85
2024/01/11 04:53:42;;;;;;;24.88;9.88;;;;;;;-5.51;100.00;103140.31;5095065;28;20035;-85
2024/01/11 04:56:12;;;;;;;17.10;6.90;;;;;;;-5.48;100.00;103134.06;5094660;28;20038;-85
2024/01/11 04:58:40;;;;;;;21.73;8.98;;;;;;;-5.46;100.00;103142.81;5094662;28;20074;-85
2024/01/11 05:01:06;;;;;;;24.90;9.30;;;;;;;-5.47;100.00;103141.06;5076529;28;20024;-85
2024/01/11 05:03:34;;;;;;;24.05;8.57;;;;;;;-5.50;100.00;103151.78;5059650;28;20043;-85
2024/01/11 05:05:59;;;;;;;16.55;7.82;;;;;;;-5.52;100.00;103149.19;5094858;28;20067;-85
2024/01/11 05:08:26;;;;;;;24.57;8.93;;;;;;;-5.55;100.00;103148.41;5076797;28;20597;-85
2024/01/11 05:10:51;;;;;;;21.60;9.30;;;;;;;-5.56;100.00;103152.00;5076482;28;20049;-85
2024/01/11 05:13:20;;;;;;;16.83;7.50;;;;;;;-5.58;100.00;103149.41;5075937;28;20119;-85
2024/01/11 05:15:46;;;;;;;19.13;6.95;;;;;;;-5.56;100.00;103158.13;5094225;28;20103;-85
2024/01/11 05:18:20;;;;;;;24.90;9.53;;;;;;;-5.57;100.00;103161.69;5076053;28;20109;-85
2024/01/11 05:20:46;;;;;;;18.90;8.32;;;;;;;-5.58;100.00;103157.34;5076556;28;20042;-85
2024/01/11 05:23:11;;;;;;;26.27;10.33;;;;;;;-5.63;100.00;103164.56;5060371;28;20028;-85
2024/01/11 05:25:40;;;;;;;25.38;9.13;;;;;;;-5.68;100.00;103162.06;5059475;28;20464;-85
2024/01/11 05:28:08;;;;;;;23.83;9.77;;;;;;;-5.71;100.00;103164.81;5072788;28;20516;-85
2024/01/11 05:30:34;;;;;;;20.48;7.88;;;;;;;-5.70;100.00;103173.59;5073714;28;20127;-85
2024/01/11 05:33:00;;;;;;;23.20;9.15;;;;;;;-5.72;100.00;103173.66;5056172;28;20067;-85
2024/01/11 05:35:27;;;;;;;16.63;7.07;;;;;;;-5.72;100.00;103178.94;5073376;28;20029;-85
2024/01/11 05:37:54;;;;;;;20.05;7.68;;;;;;;-5.73;100.00;103179.00;5074017;28;20021;-85
2024/01/11 05:40:20;;;;;;;20.13;8.45;;;;;;;-5.74;100.00;103186.09;5072259;28;20031;-85
2024/01/11 05:42:45;;;;;;;18.73;7.37;;;;;;;-5.76;100.00;103195.84;5055712;28;20029;-85
2024/01/11 05:45:11;;;;;;;22.27;9.50;;;;;;;-5.76;100.00;103194.97;5073866;28;20464;-86
2024/01/11 05:47:37;;;;;;;22.30;8.98;;;;;;;-5.79;100.00;103211.81;5072449;28;20031;-85
2024/01/11 05:50:02;;;;;;;19.27;7.37;;;;;;;-5.80;100.00;103210.09;5072910;28;20086;-86
2024/01/11 05:52:28;;;;;;;17.58;6.45;;;;;;;-5.78;100.00;103205.63;5055448;28;20043;-86
2024/01/11 05:54:54;;;;;;;15.30;6.27;;;;;;;-5.77;100.00;103183.53;5071363;28;20032;-86
2024/01/11 05:57:19;;;;;;;19.15;7.53;;;;;;;-5.73;100.00;103179.00;5072102;28;20033;-86
2024/01/11 05:59:45;;;;;;;19.17;7.40;;;;;;;-5.68;100.00;103179.72;5055717;28;20507;-85
2024/01/11 06:02:11;;;;;;;21.10;8.70;;;;;;;-5.65;100.00;103177.84;5072575;28;20362;-85
2024/01/11 06:04:36;;;;;;;16.20;6.10;;;;;;;-5.63;100.00;103188.34;5055350;28;20057;-86
2024/01/11 06:07:02;;;;;;;18.33;7.80;;;;;;;-5.64;100.00;103187.50;5072167;28;20029;-85
2024/01/11 06:09:27;;;;;;;18.00;7.43;;;;;;;-5.68;100.00;103193.81;5038640;28;20060;-86
2024/01/11 06:11:55;;;;;;;23.33;7.93;;;;;;;-5.67;100.00;103194.66;5072988;28;20033;-86
2024/01/11 06:14:20;;;;;;;22.00;8.65;;;;;;;-5.71;100.00;103207.13;5072204;28;20556;-85
2024/01/11 06:16:46;;;;;;;16.33;6.95;;;;;;;-5.71;100.00;103215.06;5055025;28;20068;-85
2024/01/11 06:19:11;;;;;;;15.00;6.60;;;;;;;-5.70;100.00;103229.16;5072049;28;20044;-86
2024/01/11 06:21:37;;;;;;;12.80;5.73;;;;;;;-5.72;100.00;103223.91;5071645;28;20029;-85
2024/01/11 06:24:03;;;;;;;24.90;9.30;;;;;;;-5.73;100.00;103221.31;5072911;28;20106;-86
2024/01/11 06:26:39;;;;;;;18.23;6.97;;;;;;;-5.75;100.00;103212.59;5074383;28;20028;-85
2024/01/11 06:29:04;;;;;;;20.23;7.03;;;;;;;-5.75;100.00;103216.09;5060076;28;20036;-84
2024/01/11 06:31:29;;;;;;;15.50;6.10;;;;;;;-5.72;100.00;103208.03;5075549;28;20046;-85
2024/01/11 06:33:55;;;;;;;19.10;7.80;;;;;;;-5.69;100.00;103209.72;5075638;28;20027;-85
2024/01/11 06:36:27;;;;;;;16.25;6.47;;;;;;;-5.67;100.00;103223.75;5093349;28;20032;-84
2024/01/11 06:38:52;;;;;;;16.77;6.57;;;;;;;-5.68;100.00;103227.34;5060227;28;20028;-84
2024/01/11 06:41:18;;;;;;;20.08;7.72;;;;;;;-5.70;100.00;103214.16;5042463;28;20024;-84
2024/01/11 06:43:44;;;;;;;19.85;7.53;;;;;;;-5.72;100.00;103205.41;5058356;28;20028;-84
2024/01/11 06:46:10;;;;;;;18.88;8.00;;;;;;;-5.73;100.00;103201.00;5093169;28;20046;-84
2024/01/11 06:48:36;;;;;;;14.73;5.63;;;;;;;-5.69;100.00;103207.94;5059255;28;20065;-85
2024/01/11 06:51:01;;;;;;;18.50;7.45;;;;;;;-5.67;100.00;103223.75;5094097;28;20424;-84
2024/01/11 06:53:27;;;;;;;13.90;5.80;;;;;;;-5.68;100.00;103224.69;5075500;28;20452;-83
2024/01/11 06:55:53;;;;;;;16.73;7.63;;;;;;;-5.69;100.00;103221.16;5075333;28;20060;-83
2024/01/11 06:58:22;;;;;;;15.75;6.65;;;;;;;-5.72;100.00;103223.91;5058647;28;20368;-83
2024/01/11 07:00:49;;;;;;;14.13;6.50;;;;;;;-5.75;100.00;103229.31;5074987;28;20034;-84
2024/01/11 07:03:15;;;;;;;25.25;9.90;;;;;;;-5.77;100.00;103239.09;5075308;28;20025;-83
2024/01/11 07:05:40;;;;;;;20.07;7.97;;;;;;;-5.81;100.00;103238.31;5076670;28;20032;-84
2024/01/11 07:08:06;;;;;;;24.20;7.80;;;;;;;-5.86;100.00;103234.97;5062617;28;20119;-84
2024/01/11 07:10:32;;;;;;;15.45;6.03;;;;;;;-5.87;100.00;103227.94;5078843;28;20468;-84
2024/01/11 07:12:57;;;;;;;19.35;7.93;;;;;;;-5.90;100.00;103229.81;5061964;28;20035;-83
2024/01/11 07:15:23;;;;;;;19.52;8.38;;;;;;;-5.91;100.00;103241.31;5061447;28;20032;-84
2024/01/11 07:17:49;;;;;;;20.60;7.83;;;;;;;-5.91;100.00;103247.44;5096625;28;20072;-84
2024/01/11 07:20:18;;;;;;;20.95;7.72;;;;;;;-5.89;100.00;103252.69;5078415;28;20384;-84
2024/01/11 07:22:46;;;;;;;20.53;7.80;;;;;;;-5.94;100.00;103252.84;5079368;28;20113;-83
2024/01/11 07:25:14;;;;;;;15.10;6.38;;;;;;;-5.91;100.00;103257.16;5078264;28;20297;-84
2024/01/11 07:27:39;;;;;;;17.95;7.28;;;;;;;-5.92;100.00;103258.06;5057942;28;20053;-84
2024/01/11 07:30:06;;;;;;;17.83;7.07;;;;;;;-5.94;100.00;103252.84;5074899;28;20123;-84
2024/01/11 07:32:31;;;;;;;14.93;6.80;;;;;;;-5.95;100.00;103256.38;5074883;28;20040;-84
2024/01/11 07:34:57;;;;;;;20.43;7.83;;;;;;;-5.96;100.00;103253.78;5058017;28;20093;-84
2024/01/11 07:37:25;;;;;;;17.50;6.53;;;;;;;-5.96;100.00;103259.06;5058221;28;20024;-84
2024/01/11 07:39:50;;;;;;;20.52;7.68;;;;;;;-6.00;100.00;103263.63;5058571;28;20290;-85
2024/01/11 07:42:16;;;;;;;22.73;9.07;;;;;;;-6.01;100.00;103264.53;5057665;28;20037;-84
2024/01/11 07:44:44;;;;;;;19.33;7.68;;;;;;;-6.02;100.00;103261.03;5057759;28;20785;-85
2024/01/11 07:47:09;;;;;;;14.60;6.67;;;;;;;-5.97;100.00;103257.41;5058325;28;20033;-84
2024/01/11 07:49:35;;;;;;;15.30;6.53;;;;;;;-5.97;100.00;103247.69;5058190;28;20275;-85
2024/01/11 07:52:03;;;;;;;20.50;7.20;;;;;;;-5.95;100.00;103248.44;5074290;28;20025;-85
2024/01/11 07:54:28;;;;;;;17.52;6.80;;;;;;;-5.93;100.00;103249.28;5058002;28;20032;-84
2024/01/11 07:56:53;;;;;;;18.80;6.90;;;;;;;-5.91;100.00;103262.47;5075931;28;20028;-84
2024/01/11 07:59:19;;;;;;;18.83;8.43;;;;;;;-5.92;100.00;103264.25;5074210;28;20040;-84
2024/01/11 08:01:45;;;;;;;19.43;7.67;;;;;;;-5.90;100.00;103264.19;5074857;28;20194;-84
2024/01/11 08:04:10;;;;;;;16.35;7.40;;;;;;;-5.89;100.00;103272.06;5057644;28;20124;-84
2024/01/11 08:06:36;;;;;;;14.37;6.43;;;;;;;-5.88;100.00;103271.13;5075593;28;20112;-84
2024/01/11 08:09:04;;;;;;;17.48;6.82;;;;;;;-5.84;100.00;103264.84;5057683;28;20036;-85
2024/01/11 08:11:29;;;;;;;21.50;7.67;;;;;;;-5.80;100.00;103255.06;5074378;28;20033;-84
2024/01/11 08:13:55;;;;;;;17.48;6.95;;;;;;;-5.75;100.00;103262.84;5074366;28;20093;-84
2024/01/11 08:16:20;;;;;;;18.53;7.30;;;;;;;-5.69;100.00;103258.19;5073448;28;20051;-84
2024/01/11 08:18:46;;;;;;;24.10;9.27;;;;;;;-5.64;100.00;103236.88;5057709;28;20040;-84
2024/01/11 08:21:12;;;;;;;18.55;7.60;;;;;;;-5.63;100.00;103244.75;5057203;28;20033;-84
2024/01/11 08:23:44;;;;;;;19.87;7.57;;;;;;;-5.61;100.00;103238.56;5073972;28;20025;-84
2024/01/11 08:26:13;;;;;;;22.70;7.85;;;;;;;-5.59;100.00;103232.31;5057960;28;20043;-84
2024/01/11 08:28:41;;;;;;;20.48;7.72;;;;;;;-5.54;100.00;103226.88;5060785;28;20211;-84
2024/01/11 08:31:07;;;;;;;20.73;8.77;;;;;;;-5.54;100.00;103237.44;5077215;28;20387;-84
2024/01/11 08:33:33;;;;;;;18.02;6.80;;;;;;;-5.50;100.00;103241.72;5076986;28;20785;-84
2024/01/11 08:35:58;;;;;;;14.32;6.45;;;;;;;-5.48;100.00;103247.81;5095413;28;20068;-85
2024/01/11 08:38:24;;;;;;;23.07;7.37;;;;;;;-5.41;100.00;103243.19;5077304;28;20539;-83
2024/01/11 08:40:53;;;;;;;14.73;5.93;;;;;;;-5.39;100.00;103244.00;5060659;28;20039;-84
2024/01/11 08:43:18;;;;;;;18.98;7.78;;;;;;;-5.39;100.00;103251.94;5077160;28;20472;-84
2024/01/11 08:45:44;;;;;;;14.43;6.40;;;;;;;-5.37;100.00;103258.06;5077225;28;20058;-84
2024/01/11 08:48:09;;;;;;;17.60;6.43;;;;;;;-5.32;100.00;103248.16;5060479;28;20028;-83
2024/01/11 08:50:35;;;;;;;15.37;6.37;;;;;;;-5.25;100.00;103240.91;5076935;28;20028;-85
2024/01/11 08:53:00;;;;;;;17.00;7.17;;;;;;;-5.22;100.00;103249.56;5076772;28;20059;-84
2024/01/11 08:55:26;;;;;;;15.18;6.20;;;;;;;-5.20;100.00;103245.09;5077041;28;20311;-85
2024/01/11 08:57:52;;;;;;;23.53;8.57;;;;;;;-5.15;100.00;103250.25;5060844;28;20384;-84
2024/01/11 09:00:18;;;;;;;22.95;8.65;;;;;;;-5.11;100.00;103258.03;5076888;28;20468;-85
2024/01/11 09:02:46;;;;;;;16.80;6.43;;;;;;;-5.04;100.00;103271.03;5076323;28;20028;-85
2024/01/11 09:05:14;;;;;;;19.42;8.32;;;;;;;-5.01;100.00;103276.22;5075912;28;20043;-85
2024/01/11 09:07:42;;;;;;;21.77;8.30;;;;;;;-4.97;100.00;103284.00;5059647;28;20036;-84
2024/01/11 09:10:16;;;;;;;21.77;8.75;;;;;;;-4.91;100.00;103280.28;5076794;28;20032;-85
2024/01/11 09:12:42;;;;;;;18.70;7.53;;;;;;;-4.87;100.00;103284.56;5094563;28;20154;-85
2024/01/11 09:15:08;;;;;;;25.23;9.68;;;;;;;-4.83;100.00;103295.88;5076580;28;20110;-84
2024/01/11 09:17:33;;;;;;;15.87;7.13;;;;;;;-4.79;100.00;103284.28;5076214;28;20024;-85
2024/01/11 09:20:01;;;;;;;20.85;8.55;;;;;;;-4.76;100.00;103286.81;5042701;28;20028;-85
2024/01/11 09:22:27;;;;;;;15.40;7.00;;;;;;;-4.74;100.00;103284.09;5059773;28;20472;-84
2024/01/11 09:24:53;;;;;;;15.15;6.88;;;;;;;-4.69;100.00;103288.31;5076128;28;20465;-84
2024/01/11 09:27:18;;;;;;;20.43;7.97;;;;;;;-4.66;100.00;103296.16;5059183;28;20056;-84
2024/01/11 09:29:45;;;;;;;17.85;8.48;;;;;;;-4.59;100.00;103281.75;5059573;28;20101;-84
2024/01/11 09:32:13;;;;;;;19.67;8.43;;;;;;;-4.55;100.00;103287.78;5059706;28;20410;-85
2024/01/11 09:34:42;;;;;;;13.38;7.00;;;;;;;-4.50;100.00;103284.97;5075527;28;20024;-88
2024/01/11 09:37:09;;;;;;;14.98;6.75;;;;;;;-4.48;100.00;103294.59;5076683;28;20042;-85
2024/01/11 09:39:35;;;;;;;22.73;8.93;;;;;;;-4.46;100.00;103300.72;5093954;28;20032;-84
2024/01/11 09:42:09;;;;;;;20.43;6.83;;;;;;;-4.40;100.00;103310.22;5059321;28;20038;-84
2024/01/11 09:44:38;;;;;;;13.88;6.68;;;;;;;-4.38;100.00;103311.03;5076139;28;20035;-84
2024/01/11 09:47:08;;;;;;;24.77;9.80;;;;;;;-4.35;100.00;103316.22;5059345;28;20032;-84
2024/01/11 09:49:37;;;;;;;21.93;9.43;;;;;;;-4.29;100.00;103321.28;5093809;28;20031;-84
2024/01/11 09:52:04;;;;;;;19.83;8.48;;;;;;;-4.24;100.00;103321.09;5060122;28;20345;-84
2024/01/11 09:54:30;;;;;;;16.10;6.88;;;;;;;-4.18;100.00;103331.47;5075793;28;20384;-84
2024/01/11 09:56:59;;;;;;;19.40;9.00;;;;;;;-4.15;100.00;103328.75;5075641;28;20028;-84
2024/01/11 09:59:25;;;;;;;23.50;10.40;;;;;;;-4.09;100.00;103330.28;5075630;28;20488;-84
2024/01/11 10:01:52;;;;;;;15.35;6.75;;;;;;;-4.04;100.00;103333.63;5076058;28;20044;-85
2024/01/11 10:04:18;;;;;;;19.58;9.10;;;;;;;-3.98;100.00;103337.84;5076023;28;20028;-84
2024/01/11 10:06:43;;;;;;;27.70;10.57;;;;;;;-3.93;100.00;103338.50;5075589;28;20491;-84
2024/01/11 10:09:12;;;;;;;16.47;7.87;;;;;;;-3.89;100.00;103332.16;5058737;28;20503;-84
2024/01/11 10:11:40;;;;;;;23.13;9.38;;;;;;;-3.85;100.00;103336.44;5059422;28;20031;-84
2024/01/11 10:14:06;;;;;;;23.50;10.43;;;;;;;-3.81;100.00;103332.75;5075452;28;20523;-84
2024/01/11 10:16:31;;;;;;;24.23;10.33;;;;;;;-3.76;100.00;103321.94;5093250;28;20120;-84
2024/01/11 10:18:57;;;;;;;18.23;8.52;;;;;;;-3.71;100.00;103325.25;5059223;28;20028;-84
2024/01/11 10:21:27;;;;;;;18.63;8.83;;;;;;;-3.64;100.00;103325.91;5075476;28;20024;-84
2024/01/11 10:23:52;;;;;;;21.08;8.90;;;;;;;-3.59;100.00;103334.53;5093601;28;20024;-83
2024/01/11 10:26:18;;;;;;;18.13;7.43;;;;;;;-3.51;100.00;103343.06;5041817;28;20193;-84
2024/01/11 10:28:47;;;;;;;17.90;7.90;;;;;;;-3.45;100.00;103337.50;5094039;28;20029;-84
2024/01/11 10:31:17;;;;;;;26.70;10.98;;;;;;;-3.41;100.00;103333.78;5042162;28;20025;-84
2024/01/11 10:33:47;;;;;;;21.70;9.30;;;;;;;-3.35;100.00;103336.19;5093593;28;20016;-84
2024/01/11 10:36:12;;;;;;;16.20;7.43;;;;;;;-3.28;100.00;103336.78;5075263;28;20076;-84
2024/01/11 10:38:39;;;;;;;13.73;6.30;;;;;;;-3.21;100.00;103337.41;5075518;28;20023;-84
2024/01/11 10:41:06;;;;;;;18.27;8.20;;;;;;;-3.17;100.00;103337.22;5078031;28;20154;-84
2024/01/11 10:43:36;;;;;;;29.17;12.05;;;;;;;-3.11;100.00;103341.41;5063427;28;20059;-85
2024/01/11 10:46:04;;;;;;;23.30;8.93;;;;;;;-3.06;100.00;103342.06;5079178;28;20028;-84
2024/01/11 10:48:32;;;;;;;25.80;11.73;;;;;;;-3.00;100.00;103346.25;5079574;28;20028;-84
2024/01/11 10:51:01;;;;;;;15.37;7.03;;;;;;;-2.93;100.00;103334.44;5079298;28;20032;-84
2024/01/11 10:53:35;;;;;;;21.85;9.50;;;;;;;-2.87;100.00;103341.28;5097438;28;20057;-84
2024/01/11 10:56:02;;;;;;;31.92;11.30;;;;;;;-2.82;100.00;103340.16;5078911;28;20532;-84
2024/01/11 10:58:32;;;;;;;19.17;8.90;;;;;;;-2.78;100.00;103335.56;5078699;28;20034;-84
2024/01/11 11:01:04;;;;;;;20.90;9.25;;;;;;;-2.71;100.00;103337.03;5079242;28;20023;-84
2024/01/11 11:03:31;;;;;;;18.10;8.37;;;;;;;-2.62;100.00;103341.06;5078484;28;20024;-84
2024/01/11 11:05:58;;;;;;;21.83;10.43;;;;;;;-2.54;100.00;103340.72;5097098;28;20024;-84
2024/01/11 11:08:27;;;;;;;33.13;12.32;;;;;;;-2.53;100.00;103331.84;5079532;28;20055;-84